createdAt,value
2018-12-27T00:01:11.603Z,19.57
2018-12-27T00:03:40.866Z,16.93
2018-12-27T00:06:09.827Z,21.67
2018-12-27T00:08:39.569Z,15.53
2018-12-27T00:11:08.815Z,13.63
2018-12-27T00:13:38.042Z,12.57
2018-12-27T00:16:07.284Z,15.13
2018-12-27T00:18:37.164Z,17.33
2018-12-27T00:21:06.323Z,16.13
2018-12-27T00:23:36.621Z,18.47
2018-12-27T00:26:05.795Z,21.50
2018-12-27T00:28:34.975Z,16.57
2018-12-27T00:31:04.293Z,15.13
2018-12-27T00:33:34.291Z,14.63
2018-12-27T00:36:03.634Z,11.67
2018-12-27T00:38:32.922Z,15.70
2018-12-27T00:41:03.041Z,13.10
2018-12-27T00:43:32.281Z,14.80
2018-12-27T00:46:01.576Z,13.13
2018-12-27T00:48:30.817Z,14.13
2018-12-27T00:51:00.297Z,12.77
2018-12-27T00:53:29.777Z,13.80
2018-12-27T00:55:58.938Z,15.77
2018-12-27T00:58:28.175Z,14.43
2018-12-27T01:00:57.922Z,17.23
2018-12-27T01:03:27.416Z,13.43
2018-12-27T01:05:59.617Z,18.20
2018-12-27T01:08:28.916Z,16.47
2018-12-27T01:10:58.236Z,15.47
2018-12-27T01:13:27.677Z,19.43
2018-12-27T01:15:57.036Z,24.40
2018-12-27T01:18:26.595Z,23.27
2018-12-27T01:20:55.939Z,19.23
2018-12-27T01:23:25.354Z,38.83
2018-12-27T01:25:55.096Z,19.57
2018-12-27T01:28:24.274Z,25.27
2018-12-27T01:30:53.674Z,17.97
2018-12-27T01:33:23.062Z,16.60
2018-12-27T01:35:52.518Z,11.80
2018-12-27T01:38:21.896Z,9.83
2018-12-27T01:40:51.276Z,9.10
2018-12-27T01:43:20.934Z,9.83
2018-12-27T01:45:49.957Z,8.70
2018-12-27T01:48:18.986Z,9.83
2018-12-27T01:50:48.260Z,12.37
2018-12-27T01:53:17.418Z,17.50
2018-12-27T01:55:46.555Z,21.27
2018-12-27T01:58:15.697Z,9.77
2018-12-27T02:00:44.805Z,8.63
2018-12-27T02:03:14.155Z,10.63
2018-12-27T02:05:43.215Z,11.20
2018-12-27T02:08:12.676Z,14.83
2018-12-27T02:10:42.134Z,11.00
2018-12-27T02:13:11.294Z,11.77
2018-12-27T02:15:40.411Z,13.07
2018-12-27T02:18:09.534Z,12.90
2018-12-27T02:20:38.657Z,12.90
2018-12-27T02:23:07.934Z,10.43
2018-12-27T02:25:37.021Z,10.97
2018-12-27T02:28:06.174Z,11.63
2018-12-27T02:30:35.346Z,11.83
2018-12-27T02:33:04.493Z,12.10
2018-12-27T02:35:33.577Z,10.10
2018-12-27T02:38:04.234Z,8.20
2018-12-27T02:40:33.294Z,9.07
2018-12-27T02:43:02.415Z,8.93
2018-12-27T02:45:38.318Z,9.60
2018-12-27T02:48:07.513Z,8.80
2018-12-27T02:50:36.614Z,6.90
2018-12-27T02:53:06.203Z,6.13
2018-12-27T02:55:35.440Z,7.37
2018-12-27T02:58:04.630Z,6.17
2018-12-27T03:00:33.795Z,7.23
2018-12-27T03:03:02.933Z,7.10
2018-12-27T03:05:32.884Z,7.67
2018-12-27T03:08:02.015Z,12.83
2018-12-27T03:10:31.203Z,7.00
2018-12-27T03:13:00.320Z,5.57
2018-12-27T03:15:29.521Z,5.30
2018-12-27T03:17:58.664Z,7.13
2018-12-27T03:20:27.755Z,4.87
2018-12-27T03:22:56.889Z,6.57
2018-12-27T03:25:28.494Z,6.00
2018-12-27T03:27:57.675Z,5.27
2018-12-27T03:30:26.757Z,4.53
2018-12-27T03:32:55.917Z,4.33
2018-12-27T03:35:25.015Z,5.03
2018-12-27T03:37:54.083Z,4.67
2018-12-27T03:40:23.255Z,4.97
2018-12-27T03:42:52.415Z,3.93
2018-12-27T03:45:21.597Z,5.07
2018-12-27T03:47:50.855Z,8.00
2018-12-27T03:50:20.035Z,10.77
2018-12-27T03:52:49.097Z,13.37
2018-12-27T03:55:18.183Z,13.20
2018-12-27T03:57:47.395Z,15.53
2018-12-27T04:00:16.438Z,14.50
2018-12-27T04:02:46.297Z,13.50
2018-12-27T04:05:15.517Z,9.63
2018-12-27T04:07:44.676Z,10.50
2018-12-27T04:10:14.089Z,10.10
2018-12-27T04:12:43.256Z,9.63
2018-12-27T04:15:12.960Z,11.70
2018-12-27T04:17:42.156Z,16.77
2018-12-27T04:20:11.244Z,11.23
2018-12-27T04:22:40.218Z,12.20
2018-12-27T04:25:10.997Z,13.53
2018-12-27T04:27:40.399Z,15.90
2018-12-27T04:30:09.397Z,11.67
2018-12-27T04:32:39.299Z,13.50
2018-12-27T04:35:08.463Z,11.00
2018-12-27T04:37:38.015Z,8.63
2018-12-27T04:40:07.517Z,7.10
2018-12-27T04:42:37.595Z,8.23
2018-12-27T04:45:06.598Z,6.53
2018-12-27T04:47:35.936Z,6.30
2018-12-27T04:50:05.878Z,5.10
2018-12-27T04:52:34.998Z,6.77
2018-12-27T04:55:04.839Z,5.90
2018-12-27T04:57:33.839Z,6.80
2018-12-27T05:00:02.776Z,7.13
2018-12-27T05:02:31.838Z,7.63
2018-12-27T05:05:01.478Z,8.57
2018-12-27T05:07:30.475Z,6.87
2018-12-27T05:09:59.698Z,9.70
2018-12-27T05:12:32.415Z,7.67
2018-12-27T05:15:01.695Z,8.63
2018-12-27T05:17:30.762Z,8.37
2018-12-27T05:19:59.775Z,7.37
2018-12-27T05:22:28.776Z,8.67
2018-12-27T05:24:57.935Z,9.00
2018-12-27T05:27:27.035Z,8.60
2018-12-27T05:29:56.155Z,8.07
2018-12-27T05:32:25.835Z,8.57
2018-12-27T05:34:55.286Z,11.40
2018-12-27T05:37:24.282Z,6.70
2018-12-27T05:39:53.256Z,8.13
2018-12-27T05:42:22.216Z,8.53
2018-12-27T05:44:51.235Z,7.53
2018-12-27T05:47:20.475Z,7.67
2018-12-27T05:49:49.695Z,8.90
2018-12-27T05:52:18.741Z,9.00
2018-12-27T05:54:47.858Z,7.57
2018-12-27T05:57:16.918Z,7.57
2018-12-27T05:59:45.875Z,9.33
2018-12-27T06:02:14.995Z,9.97
2018-12-27T06:04:44.336Z,7.97
2018-12-27T06:07:13.556Z,6.60
2018-12-27T06:09:43.003Z,8.37
2018-12-27T06:12:12.044Z,8.57
2018-12-27T06:14:40.959Z,7.83
2018-12-27T06:17:10.176Z,9.83
2018-12-27T06:19:40.436Z,8.40
2018-12-27T06:22:09.597Z,11.67
2018-12-27T06:24:38.635Z,22.07
2018-12-27T06:27:07.795Z,8.50
2018-12-27T06:29:37.275Z,8.97
2018-12-27T06:32:06.394Z,9.03
2018-12-27T06:34:41.363Z,7.23
2018-12-27T06:37:06.236Z,6.60
2018-12-27T06:39:35.556Z,7.03
2018-12-27T06:42:07.116Z,9.53
2018-12-27T06:44:36.435Z,10.07
2018-12-27T06:47:05.595Z,8.43
2018-12-27T06:49:34.634Z,6.83
2018-12-27T06:52:05.099Z,12.23
2018-12-27T06:54:34.535Z,8.60
2018-12-27T06:57:03.995Z,9.73
2018-12-27T06:59:33.017Z,9.80
2018-12-27T07:02:02.325Z,11.27
2018-12-27T07:04:31.542Z,10.90
2018-12-27T07:07:00.787Z,9.20
2018-12-27T07:09:30.622Z,9.03
2018-12-27T07:12:00.002Z,9.67
2018-12-27T07:14:29.423Z,8.53
2018-12-27T07:16:58.940Z,8.43
2018-12-27T07:19:28.170Z,8.77
2018-12-27T07:21:57.421Z,7.77
2018-12-27T07:24:26.885Z,6.93
2018-12-27T07:26:56.600Z,8.43
2018-12-27T07:29:26.402Z,8.90
2018-12-27T07:31:55.847Z,12.43
2018-12-27T07:34:24.882Z,7.70
2018-12-27T07:36:54.002Z,8.93
2018-12-27T07:39:23.742Z,11.73
2018-12-27T07:41:52.862Z,9.13
2018-12-27T07:44:22.064Z,9.67
2018-12-27T07:46:51.200Z,10.67
2018-12-27T07:49:20.263Z,10.43
2018-12-27T07:51:49.703Z,10.13
2018-12-27T07:54:19.482Z,34.73
2018-12-27T07:56:48.943Z,32.23
2018-12-27T07:59:18.062Z,50.47
2018-12-27T08:01:47.480Z,57.53
2018-12-27T08:04:16.680Z,66.53
2018-12-27T08:06:45.756Z,61.00
2018-12-27T08:09:14.796Z,44.27
2018-12-27T08:11:50.077Z,37.20
2018-12-27T08:14:19.358Z,26.63
2018-12-27T08:16:48.315Z,24.27
2018-12-27T08:19:17.656Z,24.10
2018-12-27T08:21:47.196Z,20.03
2018-12-27T08:24:16.255Z,19.57
2018-12-27T08:26:45.755Z,15.50
2018-12-27T08:29:15.495Z,21.57
2018-12-27T08:31:45.276Z,30.70
2018-12-27T08:34:15.915Z,29.67
2018-12-27T08:36:45.415Z,27.13
2018-12-27T08:39:23.575Z,18.17
2018-12-27T08:41:52.615Z,17.47
2018-12-27T08:44:21.735Z,24.40
2018-12-27T08:46:51.117Z,25.17
2018-12-27T08:49:20.204Z,25.13
2018-12-27T08:51:50.778Z,22.30
2018-12-27T08:54:19.777Z,21.07
2018-12-27T08:56:48.978Z,17.30
2018-12-27T08:59:18.274Z,17.07
2018-12-27T09:01:47.505Z,19.30
2018-12-27T09:04:16.962Z,26.83
2018-12-27T09:06:47.421Z,28.33
2018-12-27T09:09:17.123Z,16.63
2018-12-27T09:11:46.541Z,17.30
2018-12-27T09:14:15.660Z,15.03
2018-12-27T09:16:45.079Z,12.90
2018-12-27T09:19:14.199Z,12.27
2018-12-27T09:21:43.715Z,11.80
2018-12-27T09:24:13.141Z,13.93
2018-12-27T09:26:42.226Z,13.17
2018-12-27T09:29:11.682Z,11.13
2018-12-27T09:31:41.761Z,10.93
2018-12-27T09:34:11.121Z,8.60
2018-12-27T09:36:41.079Z,11.47
2018-12-27T09:39:10.503Z,13.07
2018-12-27T09:41:40.121Z,12.57
2018-12-27T09:44:09.857Z,10.57
2018-12-27T09:46:38.976Z,9.63
2018-12-27T09:49:08.455Z,9.80
2018-12-27T09:51:37.917Z,8.23
2018-12-27T09:54:07.435Z,9.70
2018-12-27T09:56:36.476Z,9.70
2018-12-27T09:59:05.905Z,8.43
2018-12-27T10:01:35.052Z,10.90
2018-12-27T10:04:04.145Z,10.13
2018-12-27T10:06:33.600Z,7.47
2018-12-27T10:09:02.945Z,9.90
2018-12-27T10:11:34.035Z,7.73
2018-12-27T10:14:03.057Z,6.03
2018-12-27T10:16:32.354Z,6.47
2018-12-27T10:19:02.135Z,9.10
2018-12-27T10:21:32.514Z,20.43
2018-12-27T10:24:01.834Z,16.87
2018-12-27T10:26:30.854Z,18.50
2018-12-27T10:29:00.394Z,17.07
2018-12-27T10:31:30.245Z,13.70
2018-12-27T10:33:59.456Z,14.57
2018-12-27T10:36:29.194Z,11.83
2018-12-27T10:38:59.894Z,14.43
2018-12-27T10:41:29.936Z,17.07
2018-12-27T10:43:59.995Z,15.17
2018-12-27T10:46:29.075Z,15.47
2018-12-27T10:48:58.174Z,11.50
2018-12-27T10:51:28.216Z,10.00
2018-12-27T10:53:57.655Z,17.93
2018-12-27T10:56:26.874Z,12.77
2018-12-27T10:58:57.635Z,14.93
2018-12-27T11:01:27.181Z,14.40
2018-12-27T11:04:12.181Z,16.90
2018-12-27T11:06:41.562Z,16.07
2018-12-27T11:09:10.942Z,17.57
2018-12-27T11:11:40.292Z,19.93
2018-12-27T11:14:10.277Z,17.10
2018-12-27T11:16:39.682Z,17.67
2018-12-27T11:19:09.026Z,17.07
2018-12-27T11:21:38.243Z,19.67
2018-12-27T11:24:08.152Z,19.50
2018-12-27T11:26:37.482Z,23.23
2018-12-27T11:29:06.652Z,26.87
2018-12-27T11:31:35.782Z,18.70
2018-12-27T11:34:07.634Z,19.70
2018-12-27T11:36:38.725Z,21.70
2018-12-27T11:39:07.795Z,23.33
2018-12-27T11:41:37.376Z,22.87
2018-12-27T11:44:06.477Z,18.07
2018-12-27T11:46:35.696Z,22.57
2018-12-27T11:49:05.374Z,23.63
2018-12-27T11:51:36.338Z,25.90
2018-12-27T11:54:05.539Z,22.83
2018-12-27T11:56:34.857Z,19.33
2018-12-27T11:59:05.001Z,23.63
2018-12-27T12:01:33.986Z,21.23
2018-12-27T12:04:03.189Z,20.27
2018-12-27T12:06:32.526Z,18.10
2018-12-27T12:09:01.890Z,23.40
2018-12-27T12:11:31.267Z,18.33
2018-12-27T12:14:00.185Z,16.87
2018-12-27T12:16:31.356Z,20.40
2018-12-27T12:19:00.654Z,21.27
2018-12-27T12:21:29.857Z,17.90
2018-12-27T12:23:59.028Z,18.47
2018-12-27T12:26:28.494Z,16.90
2018-12-27T12:28:57.694Z,18.03
2018-12-27T12:31:27.214Z,19.33
2018-12-27T12:33:56.434Z,18.50
2018-12-27T12:36:25.856Z,17.90
2018-12-27T12:38:55.597Z,16.07
2018-12-27T12:41:24.796Z,17.83
2018-12-27T12:43:54.141Z,15.30
2018-12-27T12:46:23.662Z,16.17
2018-12-27T12:48:53.098Z,18.07
2018-12-27T12:51:23.183Z,16.10
2018-12-27T12:53:52.619Z,16.37
2018-12-27T12:56:22.216Z,15.90
2018-12-27T12:58:51.196Z,17.10
2018-12-27T13:01:20.469Z,15.70
2018-12-27T13:03:49.739Z,16.63
2018-12-27T13:06:19.161Z,14.30
2018-12-27T13:08:49.304Z,15.47
2018-12-27T13:11:19.039Z,17.13
2018-12-27T13:13:48.508Z,15.80
2018-12-27T13:16:17.701Z,17.33
2018-12-27T13:18:47.429Z,17.93
2018-12-27T13:21:17.502Z,16.53
2018-12-27T13:23:47.224Z,19.23
2018-12-27T13:26:16.962Z,17.37
2018-12-27T13:28:48.283Z,16.63
2018-12-27T13:31:18.943Z,18.43
2018-12-27T13:33:48.807Z,17.23
2018-12-27T13:36:25.228Z,18.50
2018-12-27T13:38:49.687Z,17.30
2018-12-27T13:41:18.799Z,18.53
2018-12-27T13:43:48.167Z,15.93
2018-12-27T13:46:17.585Z,20.00
2018-12-27T13:48:47.175Z,16.37
2018-12-27T13:51:16.446Z,13.70
2018-12-27T13:53:47.259Z,15.73
2018-12-27T13:56:17.616Z,14.77
2018-12-27T13:58:47.357Z,14.27
2018-12-27T14:01:16.542Z,17.07
2018-12-27T14:03:45.843Z,13.83
2018-12-27T14:06:15.001Z,16.70
2018-12-27T14:08:44.482Z,15.70
2018-12-27T14:11:13.900Z,13.73
2018-12-27T14:13:43.370Z,15.27
2018-12-27T14:16:12.441Z,16.13
2018-12-27T14:18:41.977Z,15.73
2018-12-27T14:21:11.836Z,15.60
2018-12-27T14:23:41.116Z,16.40
2018-12-27T14:26:10.617Z,13.43
2018-12-27T14:28:39.675Z,12.57
2018-12-27T14:31:08.796Z,13.97
2018-12-27T14:33:37.856Z,13.10
2018-12-27T14:36:07.054Z,13.50
2018-12-27T14:38:36.474Z,13.40
2018-12-27T14:41:05.598Z,13.27
2018-12-27T14:43:34.715Z,13.03
2018-12-27T14:46:04.074Z,16.63
2018-12-27T14:48:39.294Z,19.27
2018-12-27T14:51:08.575Z,20.63
2018-12-27T14:53:38.296Z,15.83
2018-12-27T14:56:10.554Z,16.43
2018-12-27T14:58:39.975Z,17.07
2018-12-27T15:01:10.400Z,15.93
2018-12-27T15:03:39.508Z,15.30
2018-12-27T15:06:08.819Z,15.87
2018-12-27T15:08:38.082Z,18.10
2018-12-27T15:11:07.343Z,17.27
2018-12-27T15:13:36.439Z,15.43
2018-12-27T15:16:06.260Z,18.30
2018-12-27T15:18:35.581Z,15.63
2018-12-27T15:21:04.902Z,15.80
2018-12-27T15:23:34.259Z,13.97
2018-12-27T15:26:03.389Z,15.07
2018-12-27T15:28:33.839Z,13.60
2018-12-27T15:31:03.038Z,15.77
2018-12-27T15:33:32.477Z,18.97
2018-12-27T15:36:01.740Z,15.53
2018-12-27T15:38:31.036Z,22.07
2018-12-27T15:41:00.115Z,18.60
2018-12-27T15:43:29.436Z,16.50
2018-12-27T15:45:58.716Z,18.97
2018-12-27T15:48:28.716Z,17.60
2018-12-27T15:50:58.316Z,18.80
2018-12-27T15:53:27.476Z,17.13
2018-12-27T15:55:56.757Z,14.80
2018-12-27T15:58:26.237Z,19.13
2018-12-27T16:00:55.649Z,18.53
2018-12-27T16:03:25.122Z,15.87
2018-12-27T16:05:54.646Z,15.90
2018-12-27T16:08:24.055Z,18.97
2018-12-27T16:10:53.424Z,21.00
2018-12-27T16:13:22.796Z,23.13
2018-12-27T16:15:52.295Z,24.13
2018-12-27T16:18:21.435Z,21.27
2018-12-27T16:20:50.615Z,25.63
2018-12-27T16:23:19.758Z,15.63
2018-12-27T16:25:49.175Z,14.50
2018-12-27T16:28:18.094Z,16.07
2018-12-27T16:30:47.637Z,15.83
2018-12-27T16:33:17.135Z,15.17
2018-12-27T16:35:47.497Z,17.37
2018-12-27T16:38:16.656Z,14.80
2018-12-27T16:40:46.075Z,15.17
2018-12-27T16:43:15.415Z,21.50
2018-12-27T16:45:46.377Z,12.03
2018-12-27T16:48:15.635Z,15.13
2018-12-27T16:50:44.735Z,14.47
2018-12-27T16:53:13.915Z,15.53
2018-12-27T16:55:43.837Z,17.77
2018-12-27T16:58:13.116Z,17.27
2018-12-27T17:00:42.475Z,18.80
2018-12-27T17:03:11.683Z,16.20
2018-12-27T17:05:40.922Z,14.90
2018-12-27T17:08:10.438Z,15.53
2018-12-27T17:10:39.818Z,16.83
2018-12-27T17:13:08.938Z,18.50
2018-12-27T17:15:38.315Z,15.57
2018-12-27T17:18:07.577Z,15.20
2018-12-27T17:20:39.538Z,13.63
2018-12-27T17:23:08.817Z,15.47
2018-12-27T17:25:38.116Z,14.40
2018-12-27T17:28:07.377Z,15.10
2018-12-27T17:30:36.638Z,14.93
2018-12-27T17:33:05.938Z,18.00
2018-12-27T17:35:35.158Z,23.43
2018-12-27T17:38:04.396Z,23.30
2018-12-27T17:40:33.578Z,17.27
2018-12-27T17:43:03.058Z,15.70
2018-12-27T17:45:32.305Z,13.77
2018-12-27T17:48:01.796Z,11.40
2018-12-27T17:50:31.045Z,12.80
2018-12-27T17:53:00.996Z,11.20
2018-12-27T17:55:30.299Z,12.87
2018-12-27T17:58:06.101Z,9.50
2018-12-27T18:00:35.529Z,9.73
2018-12-27T18:03:07.147Z,10.83
2018-12-27T18:05:36.586Z,11.37
2018-12-27T18:08:05.847Z,8.70
2018-12-27T18:10:35.648Z,8.57
2018-12-27T18:13:04.986Z,13.20
2018-12-27T18:15:34.156Z,19.33
2018-12-27T18:18:03.515Z,22.53
2018-12-27T18:20:32.997Z,19.43
2018-12-27T18:23:02.915Z,15.30
2018-12-27T18:25:32.075Z,17.27
2018-12-27T18:28:01.356Z,18.33
2018-12-27T18:30:30.765Z,14.43
2018-12-27T18:32:59.859Z,21.90
2018-12-27T18:35:29.138Z,20.20
2018-12-27T18:37:58.618Z,16.80
2018-12-27T18:40:27.680Z,11.67
2018-12-27T18:42:57.346Z,8.33
2018-12-27T18:45:27.039Z,8.10
2018-12-27T18:47:55.937Z,8.20
2018-12-27T18:50:25.237Z,8.50
2018-12-27T18:52:54.536Z,6.43
2018-12-27T18:55:23.840Z,7.67
2018-12-27T18:57:53.218Z,7.10
2018-12-27T19:00:23.288Z,8.03
2018-12-27T19:02:52.538Z,7.80
2018-12-27T19:05:22.564Z,6.33
2018-12-27T19:07:51.915Z,9.87
2018-12-27T19:10:21.678Z,8.57
2018-12-27T19:13:05.616Z,8.10
2018-12-27T19:15:47.470Z,8.90
2018-12-27T19:18:25.979Z,6.80
2018-12-27T19:20:59.104Z,9.80
2018-12-27T19:23:29.975Z,9.67
2018-12-27T19:25:59.676Z,19.20
2018-12-27T19:28:37.439Z,20.83
2018-12-27T19:31:06.155Z,19.30
2018-12-27T19:33:35.675Z,20.67
2018-12-27T19:36:05.120Z,21.23
2018-12-27T19:38:34.875Z,19.23
2018-12-27T19:41:16.156Z,17.20
2018-12-27T19:43:45.456Z,16.57
2018-12-27T19:46:14.716Z,18.00
2018-12-27T19:48:44.357Z,18.37
2018-12-27T19:51:13.895Z,19.07
2018-12-27T19:53:43.880Z,18.03
2018-12-27T19:56:13.737Z,18.83
2018-12-27T19:58:43.178Z,25.10
2018-12-27T20:01:13.123Z,20.13
2018-12-27T20:03:44.440Z,22.67
2018-12-27T20:06:14.855Z,22.97
2018-12-27T20:08:44.759Z,20.80
2018-12-27T20:11:14.595Z,26.33
2018-12-27T20:13:44.677Z,23.43
2018-12-27T20:16:14.398Z,26.37
2018-12-27T20:18:43.797Z,21.87
2018-12-27T20:21:13.581Z,20.70
2018-12-27T20:23:43.040Z,21.40
2018-12-27T20:26:12.697Z,20.50
2018-12-27T20:28:42.618Z,19.97
2018-12-27T20:31:12.317Z,18.77
2018-12-27T20:33:42.116Z,21.20
2018-12-27T20:36:11.577Z,18.53
2018-12-27T20:38:41.179Z,19.53
2018-12-27T20:41:10.800Z,18.03
2018-12-27T20:43:40.557Z,18.13
2018-12-27T20:46:11.496Z,17.17
2018-12-27T20:48:41.415Z,20.90
2018-12-27T20:51:11.359Z,19.90
2018-12-27T20:53:41.437Z,20.67
2018-12-27T20:56:12.707Z,19.10
2018-12-27T20:58:42.589Z,18.27
2018-12-27T21:01:12.206Z,17.57
2018-12-27T21:03:42.007Z,19.00
2018-12-27T21:06:11.549Z,15.33
2018-12-27T21:08:41.787Z,19.57
2018-12-27T21:11:11.867Z,17.13
2018-12-27T21:13:41.247Z,17.77
2018-12-27T21:16:10.975Z,16.47
2018-12-27T21:18:41.080Z,18.90
2018-12-27T21:21:12.296Z,21.60
2018-12-27T21:23:42.615Z,18.20
2018-12-27T21:26:12.456Z,17.90
2018-12-27T21:28:42.618Z,17.37
2018-12-27T21:31:12.616Z,18.33
2018-12-27T21:33:42.037Z,14.67
2018-12-27T21:36:11.796Z,15.93
2018-12-27T21:38:41.457Z,17.63
2018-12-27T21:41:11.376Z,15.27
2018-12-27T21:43:41.478Z,12.97
2018-12-27T21:46:11.016Z,13.40
2018-12-27T21:48:40.600Z,14.67
2018-12-27T21:51:11.335Z,14.30
2018-12-27T21:53:41.717Z,15.40
2018-12-27T21:56:12.716Z,14.43
2018-12-27T21:58:42.178Z,14.47
2018-12-27T22:01:12.160Z,12.27
2018-12-27T22:03:41.836Z,10.07
2018-12-27T22:06:11.202Z,13.67
2018-12-27T22:08:40.656Z,11.97
2018-12-27T22:11:10.245Z,12.07
2018-12-27T22:13:40.914Z,11.43
2018-12-27T22:16:10.040Z,11.43
2018-12-27T22:18:39.224Z,10.93
2018-12-27T22:21:08.515Z,8.87
2018-12-27T22:23:38.179Z,7.00
2018-12-27T22:26:07.577Z,9.77
2018-12-27T22:28:37.396Z,9.47
2018-12-27T22:31:06.925Z,7.43
2018-12-27T22:33:36.585Z,9.60
2018-12-27T22:36:05.619Z,8.30
2018-12-27T22:38:35.793Z,8.57
2018-12-27T22:41:05.136Z,7.40
2018-12-27T22:43:34.454Z,11.17
2018-12-27T22:46:03.876Z,9.10
2018-12-27T22:48:33.357Z,7.80
2018-12-27T22:51:03.861Z,8.50
2018-12-27T22:53:33.417Z,9.40
2018-12-27T22:56:02.477Z,7.87
2018-12-27T22:58:31.784Z,7.67
2018-12-27T23:01:01.539Z,6.40
2018-12-27T23:03:30.661Z,8.83
2018-12-27T23:05:59.758Z,8.30
2018-12-27T23:08:29.115Z,9.57
2018-12-27T23:10:58.235Z,9.97
2018-12-27T23:13:27.335Z,11.60
2018-12-27T23:15:56.697Z,7.07
2018-12-27T23:18:25.735Z,7.57
2018-12-27T23:20:54.996Z,6.10
2018-12-27T23:23:23.996Z,7.63
2018-12-27T23:25:53.176Z,6.97
2018-12-27T23:28:22.816Z,6.90
2018-12-27T23:30:51.936Z,50.00
2018-12-27T23:33:21.601Z,26.30
2018-12-27T23:35:51.158Z,15.73
2018-12-27T23:38:20.695Z,6.57
2018-12-27T23:40:49.779Z,7.83
2018-12-27T23:43:18.877Z,6.80
2018-12-27T23:45:48.016Z,5.13
2018-12-27T23:48:17.335Z,8.20
2018-12-27T23:50:46.257Z,5.80
2018-12-27T23:53:15.575Z,6.23
2018-12-27T23:55:44.935Z,7.50
2018-12-27T23:58:14.270Z,6.73
